sensor_id;sensor_type;location;lat;lon;timestamp;P1;durP1;ratioP1;P2;durP2;ratioP2
20997;SDS011;10657;51.276;6.390;2023-04-01T00:01:23;2.38;;;0.70;;
20997;SDS011;10657;51.276;6.390;2023-04-01T00:03:50;4.00;;;0.82;;
20997;SDS011;10657;51.276;6.390;2023-04-01T00:06:17;4.45;;;0.88;;
20997;SDS011;10657;51.276;6.390;2023-04-01T00:08:45;4.60;;;0.98;;
20997;SDS011;10657;51.276;6.390;2023-04-01T00:11:12;4.05;;;0.80;;
20997;SDS011;10657;51.276;6.390;2023-04-01T00:13:39;3.30;;;0.75;;
20997;SDS011;10657;51.276;6.390;2023-04-01T00:16:06;4.57;;;1.00;;
20997;SDS011;10657;51.276;6.390;2023-04-01T00:18:45;1.75;;;0.50;;
20997;SDS011;10657;51.276;6.390;2023-04-01T00:21:13;4.75;;;0.88;;
20997;SDS011;10657;51.276;6.390;2023-04-01T00:23:40;3.17;;;0.70;;
20997;SDS011;10657;51.276;6.390;2023-04-01T00:26:07;1.33;;;0.45;;
20997;SDS011;10657;51.276;6.390;2023-04-01T00:28:34;3.03;;;0.63;;
20997;SDS011;10657;51.276;6.390;2023-04-01T00:31:05;3.20;;;0.63;;
20997;SDS011;10657;51.276;6.390;2023-04-01T00:33:33;2.63;;;0.63;;
20997;SDS011;10657;51.276;6.390;2023-04-01T00:36:10;1.60;;;0.57;;
20997;SDS011;10657;51.276;6.390;2023-04-01T00:38:38;3.55;;;0.70;;
20997;SDS011;10657;51.276;6.390;2023-04-01T00:41:04;3.72;;;0.70;;
20997;SDS011;10657;51.276;6.390;2023-04-01T00:43:32;3.05;;;0.73;;
20997;SDS011;10657;51.276;6.390;2023-04-01T00:45:59;4.38;;;0.80;;
20997;SDS011;10657;51.276;6.390;2023-04-01T00:48:33;1.33;;;0.50;;
20997;SDS011;10657;51.276;6.390;2023-04-01T00:51:02;2.95;;;0.68;;
20997;SDS011;10657;51.276;6.390;2023-04-01T00:53:32;3.20;;;0.77;;
20997;SDS011;10657;51.276;6.390;2023-04-01T00:56:04;3.33;;;0.70;;
20997;SDS011;10657;51.276;6.390;2023-04-01T00:58:37;3.30;;;0.60;;
20997;SDS011;10657;51.276;6.390;2023-04-01T01:01:07;3.53;;;0.75;;
20997;SDS011;10657;51.276;6.390;2023-04-01T01:03:35;3.85;;;0.70;;
20997;SDS011;10657;51.276;6.390;2023-04-01T01:11:34;4.32;;;0.70;;
20997;SDS011;10657;51.276;6.390;2023-04-01T01:17:00;1.10;;;0.40;;
20997;SDS011;10657;51.276;6.390;2023-04-01T01:28:19;3.83;;;0.50;;
20997;SDS011;10657;51.276;6.390;2023-04-01T01:36:44;3.90;;;0.80;;
20997;SDS011;10657;51.276;6.390;2023-04-01T01:39:15;2.75;;;0.68;;
20997;SDS011;10657;51.276;6.390;2023-04-01T01:41:43;2.28;;;0.45;;
20997;SDS011;10657;51.276;6.390;2023-04-01T01:44:11;2.22;;;0.40;;
20997;SDS011;10657;51.276;6.390;2023-04-01T01:46:40;1.75;;;0.50;;
20997;SDS011;10657;51.276;6.390;2023-04-01T01:49:10;1.73;;;0.50;;
20997;SDS011;10657;51.276;6.390;2023-04-01T01:51:39;2.15;;;0.60;;
20997;SDS011;10657;51.276;6.390;2023-04-01T01:54:06;2.70;;;0.60;;
20997;SDS011;10657;51.276;6.390;2023-04-01T01:56:32;2.60;;;0.90;;
20997;SDS011;10657;51.276;6.390;2023-04-01T01:59:02;3.22;;;0.65;;
20997;SDS011;10657;51.276;6.390;2023-04-01T02:01:33;2.50;;;0.70;;
20997;SDS011;10657;51.276;6.390;2023-04-01T02:04:04;3.88;;;0.70;;
20997;SDS011;10657;51.276;6.390;2023-04-01T02:06:32;3.08;;;0.60;;
20997;SDS011;10657;51.276;6.390;2023-04-01T02:09:06;3.70;;;0.70;;
20997;SDS011;10657;51.276;6.390;2023-04-01T02:11:38;2.53;;;0.73;;
20997;SDS011;10657;51.276;6.390;2023-04-01T02:19:02;1.63;;;0.50;;
20997;SDS011;10657;51.276;6.390;2023-04-01T02:21:33;4.93;;;1.00;;
20997;SDS011;10657;51.276;6.390;2023-04-01T02:24:02;4.00;;;0.90;;
20997;SDS011;10657;51.276;6.390;2023-04-01T02:26:33;4.18;;;0.70;;
20997;SDS011;10657;51.276;6.390;2023-04-01T02:29:01;4.28;;;0.70;;
20997;SDS011;10657;51.276;6.390;2023-04-01T02:31:29;1.30;;;0.43;;
20997;SDS011;10657;51.276;6.390;2023-04-01T02:33:58;2.50;;;0.63;;
20997;SDS011;10657;51.276;6.390;2023-04-01T02:36:25;2.50;;;0.50;;
20997;SDS011;10657;51.276;6.390;2023-04-01T02:38:52;2.15;;;0.50;;
20997;SDS011;10657;51.276;6.390;2023-04-01T02:41:21;1.75;;;0.50;;
20997;SDS011;10657;51.276;6.390;2023-04-01T02:43:48;3.42;;;0.80;;
20997;SDS011;10657;51.276;6.390;2023-04-01T02:46:15;3.00;;;0.63;;
20997;SDS011;10657;51.276;6.390;2023-04-01T02:48:41;2.67;;;0.60;;
20997;SDS011;10657;51.276;6.390;2023-04-01T02:51:08;3.38;;;0.60;;
20997;SDS011;10657;51.276;6.390;2023-04-01T02:53:35;2.90;;;0.60;;
20997;SDS011;10657;51.276;6.390;2023-04-01T02:56:02;0.85;;;0.40;;
20997;SDS011;10657;51.276;6.390;2023-04-01T02:58:28;3.10;;;0.70;;
20997;SDS011;10657;51.276;6.390;2023-04-01T03:00:55;4.68;;;1.10;;
20997;SDS011;10657;51.276;6.390;2023-04-01T03:03:22;2.83;;;0.60;;
20997;SDS011;10657;51.276;6.390;2023-04-01T03:05:48;2.28;;;0.60;;
20997;SDS011;10657;51.276;6.390;2023-04-01T03:08:15;2.13;;;0.63;;
20997;SDS011;10657;51.276;6.390;2023-04-01T03:10:42;3.20;;;0.63;;
20997;SDS011;10657;51.276;6.390;2023-04-01T03:13:08;2.20;;;0.65;;
20997;SDS011;10657;51.276;6.390;2023-04-01T03:15:35;2.25;;;0.70;;
20997;SDS011;10657;51.276;6.390;2023-04-01T03:18:02;1.60;;;0.70;;
20997;SDS011;10657;51.276;6.390;2023-04-01T03:20:29;1.75;;;0.68;;
20997;SDS011;10657;51.276;6.390;2023-04-01T03:22:56;2.00;;;0.55;;
20997;SDS011;10657;51.276;6.390;2023-04-01T03:25:23;2.25;;;0.63;;
20997;SDS011;10657;51.276;6.390;2023-04-01T03:27:49;1.05;;;0.43;;
20997;SDS011;10657;51.276;6.390;2023-04-01T03:30:16;1.10;;;0.50;;
20997;SDS011;10657;51.276;6.390;2023-04-01T03:32:43;2.85;;;0.43;;
20997;SDS011;10657;51.276;6.390;2023-04-01T03:35:10;2.67;;;0.60;;
20997;SDS011;10657;51.276;6.390;2023-04-01T03:37:37;2.40;;;0.60;;
20997;SDS011;10657;51.276;6.390;2023-04-01T03:40:04;1.35;;;0.40;;
20997;SDS011;10657;51.276;6.390;2023-04-01T03:42:31;1.48;;;0.50;;
20997;SDS011;10657;51.276;6.390;2023-04-01T03:44:58;1.55;;;0.60;;
20997;SDS011;10657;51.276;6.390;2023-04-01T03:47:25;2.40;;;0.70;;
20997;SDS011;10657;51.276;6.390;2023-04-01T03:49:51;2.47;;;0.60;;
20997;SDS011;10657;51.276;6.390;2023-04-01T03:52:18;0.82;;;0.45;;
20997;SDS011;10657;51.276;6.390;2023-04-01T03:54:45;1.30;;;0.57;;
20997;SDS011;10657;51.276;6.390;2023-04-01T03:57:12;2.35;;;0.70;;
20997;SDS011;10657;51.276;6.390;2023-04-01T03:59:38;2.63;;;0.77;;
20997;SDS011;10657;51.276;6.390;2023-04-01T04:02:05;2.22;;;0.60;;
20997;SDS011;10657;51.276;6.390;2023-04-01T04:04:32;2.25;;;0.70;;
20997;SDS011;10657;51.276;6.390;2023-04-01T04:06:58;1.80;;;0.63;;
20997;SDS011;10657;51.276;6.390;2023-04-01T04:09:25;2.78;;;0.68;;
20997;SDS011;10657;51.276;6.390;2023-04-01T04:11:52;3.95;;;0.70;;
20997;SDS011;10657;51.276;6.390;2023-04-01T04:14:18;2.03;;;0.63;;
20997;SDS011;10657;51.276;6.390;2023-04-01T04:16:45;3.20;;;0.70;;
20997;SDS011;10657;51.276;6.390;2023-04-01T04:19:12;3.03;;;0.60;;
20997;SDS011;10657;51.276;6.390;2023-04-01T04:21:39;2.17;;;0.50;;
20997;SDS011;10657;51.276;6.390;2023-04-01T04:24:07;1.30;;;0.50;;
20997;SDS011;10657;51.276;6.390;2023-04-01T04:26:35;2.15;;;0.60;;
20997;SDS011;10657;51.276;6.390;2023-04-01T04:29:02;1.25;;;0.60;;
20997;SDS011;10657;51.276;6.390;2023-04-01T04:31:29;1.80;;;0.80;;
20997;SDS011;10657;51.276;6.390;2023-04-01T04:33:56;1.83;;;0.60;;
20997;SDS011;10657;51.276;6.390;2023-04-01T04:36:24;2.72;;;1.00;;
20997;SDS011;10657;51.276;6.390;2023-04-01T04:38:51;1.85;;;0.70;;
20997;SDS011;10657;51.276;6.390;2023-04-01T04:41:20;1.98;;;0.88;;
20997;SDS011;10657;51.276;6.390;2023-04-01T04:43:52;2.45;;;0.88;;
20997;SDS011;10657;51.276;6.390;2023-04-01T04:46:21;2.08;;;0.90;;
20997;SDS011;10657;51.276;6.390;2023-04-01T04:48:48;2.53;;;0.93;;
20997;SDS011;10657;51.276;6.390;2023-04-01T04:51:15;2.83;;;0.80;;
20997;SDS011;10657;51.276;6.390;2023-04-01T04:53:42;2.38;;;0.82;;
20997;SDS011;10657;51.276;6.390;2023-04-01T04:56:10;2.20;;;0.90;;
20997;SDS011;10657;51.276;6.390;2023-04-01T04:58:37;2.35;;;1.00;;
20997;SDS011;10657;51.276;6.390;2023-04-01T05:01:05;4.30;;;1.20;;
20997;SDS011;10657;51.276;6.390;2023-04-01T05:03:33;5.18;;;1.50;;
20997;SDS011;10657;51.276;6.390;2023-04-01T05:06:00;3.17;;;1.23;;
20997;SDS011;10657;51.276;6.390;2023-04-01T05:08:27;4.65;;;1.40;;
20997;SDS011;10657;51.276;6.390;2023-04-01T05:10:55;2.67;;;1.15;;
20997;SDS011;10657;51.276;6.390;2023-04-01T05:13:22;4.45;;;1.58;;
20997;SDS011;10657;51.276;6.390;2023-04-01T05:15:48;3.28;;;1.50;;
20997;SDS011;10657;51.276;6.390;2023-04-01T05:18:15;4.40;;;1.80;;
20997;SDS011;10657;51.276;6.390;2023-04-01T05:20:45;3.28;;;1.50;;
20997;SDS011;10657;51.276;6.390;2023-04-01T05:23:13;4.57;;;1.80;;
20997;SDS011;10657;51.276;6.390;2023-04-01T05:25:40;5.80;;;1.70;;
20997;SDS011;10657;51.276;6.390;2023-04-01T05:28:07;3.20;;;1.75;;
20997;SDS011;10657;51.276;6.390;2023-04-01T05:30:34;3.90;;;1.80;;
20997;SDS011;10657;51.276;6.390;2023-04-01T05:33:01;5.93;;;2.15;;
20997;SDS011;10657;51.276;6.390;2023-04-01T05:35:28;4.93;;;2.13;;
20997;SDS011;10657;51.276;6.390;2023-04-01T05:37:55;6.20;;;2.45;;
20997;SDS011;10657;51.276;6.390;2023-04-01T05:40:22;4.68;;;2.15;;
20997;SDS011;10657;51.276;6.390;2023-04-01T05:42:48;4.78;;;2.22;;
20997;SDS011;10657;51.276;6.390;2023-04-01T05:45:15;4.57;;;2.17;;
20997;SDS011;10657;51.276;6.390;2023-04-01T05:47:42;5.00;;;2.53;;
20997;SDS011;10657;51.276;6.390;2023-04-01T05:50:09;5.53;;;2.97;;
20997;SDS011;10657;51.276;6.390;2023-04-01T05:52:37;5.50;;;2.70;;
20997;SDS011;10657;51.276;6.390;2023-04-01T05:55:04;8.38;;;2.83;;
20997;SDS011;10657;51.276;6.390;2023-04-01T05:57:31;6.38;;;3.05;;
20997;SDS011;10657;51.276;6.390;2023-04-01T05:59:58;6.97;;;3.20;;
20997;SDS011;10657;51.276;6.390;2023-04-01T06:02:24;5.63;;;2.97;;
20997;SDS011;10657;51.276;6.390;2023-04-01T06:04:58;6.90;;;2.92;;
20997;SDS011;10657;51.276;6.390;2023-04-01T06:07:37;4.35;;;2.33;;
20997;SDS011;10657;51.276;6.390;2023-04-01T06:10:09;5.32;;;3.00;;
20997;SDS011;10657;51.276;6.390;2023-04-01T06:12:44;4.18;;;2.20;;
20997;SDS011;10657;51.276;6.390;2023-04-01T06:23:57;4.05;;;2.10;;
20997;SDS011;10657;51.276;6.390;2023-04-01T06:26:29;4.90;;;2.17;;
20997;SDS011;10657;51.276;6.390;2023-04-01T06:29:39;4.20;;;2.00;;
20997;SDS011;10657;51.276;6.390;2023-04-01T06:52:40;2.10;;;0.98;;
20997;SDS011;10657;51.276;6.390;2023-04-01T06:57:53;3.17;;;1.10;;
20997;SDS011;10657;51.276;6.390;2023-04-01T07:00:36;2.60;;;1.30;;
20997;SDS011;10657;51.276;6.390;2023-04-01T07:03:17;2.78;;;1.10;;
20997;SDS011;10657;51.276;6.390;2023-04-01T07:06:04;2.78;;;1.30;;
20997;SDS011;10657;51.276;6.390;2023-04-01T07:08:36;1.88;;;0.82;;
20997;SDS011;10657;51.276;6.390;2023-04-01T07:11:06;2.53;;;1.20;;
20997;SDS011;10657;51.276;6.390;2023-04-01T07:13:41;2.08;;;1.10;;
20997;SDS011;10657;51.276;6.390;2023-04-01T07:16:16;2.35;;;1.30;;
20997;SDS011;10657;51.276;6.390;2023-04-01T07:19:04;2.10;;;1.20;;
20997;SDS011;10657;51.276;6.390;2023-04-01T07:21:40;3.53;;;1.40;;
20997;SDS011;10657;51.276;6.390;2023-04-01T07:24:25;3.33;;;1.40;;
20997;SDS011;10657;51.276;6.390;2023-04-01T07:27:00;3.03;;;1.27;;
20997;SDS011;10657;51.276;6.390;2023-04-01T07:29:27;3.15;;;1.10;;
20997;SDS011;10657;51.276;6.390;2023-04-01T07:34:48;2.63;;;1.40;;
20997;SDS011;10657;51.276;6.390;2023-04-01T07:37:38;2.78;;;1.20;;
20997;SDS011;10657;51.276;6.390;2023-04-01T07:40:47;3.80;;;1.75;;
20997;SDS011;10657;51.276;6.390;2023-04-01T07:51:27;2.15;;;1.20;;
20997;SDS011;10657;51.276;6.390;2023-04-01T07:54:11;1.90;;;1.10;;
20997;SDS011;10657;51.276;6.390;2023-04-01T07:56:49;2.13;;;1.27;;
20997;SDS011;10657;51.276;6.390;2023-04-01T08:02:25;2.70;;;1.38;;
20997;SDS011;10657;51.276;6.390;2023-04-01T08:10:59;2.38;;;1.45;;
20997;SDS011;10657;51.276;6.390;2023-04-01T08:14:07;4.57;;;1.75;;
20997;SDS011;10657;51.276;6.390;2023-04-01T08:17:05;3.15;;;1.77;;
20997;SDS011;10657;51.276;6.390;2023-04-01T08:19:49;6.07;;;2.30;;
20997;SDS011;10657;51.276;6.390;2023-04-01T08:22:49;4.90;;;2.40;;
20997;SDS011;10657;51.276;6.390;2023-04-01T08:25:24;5.22;;;2.60;;
20997;SDS011;10657;51.276;6.390;2023-04-01T08:30:49;4.65;;;2.67;;
20997;SDS011;10657;51.276;6.390;2023-04-01T08:33:31;5.13;;;2.75;;
20997;SDS011;10657;51.276;6.390;2023-04-01T08:36:08;5.05;;;2.78;;
20997;SDS011;10657;51.276;6.390;2023-04-01T08:47:20;6.47;;;3.33;;
20997;SDS011;10657;51.276;6.390;2023-04-01T08:53:05;6.03;;;3.55;;
20997;SDS011;10657;51.276;6.390;2023-04-01T08:58:32;6.30;;;3.80;;
20997;SDS011;10657;51.276;6.390;2023-04-01T09:18:01;8.85;;;5.03;;
20997;SDS011;10657;51.276;6.390;2023-04-01T09:38:17;11.18;;;7.30;;
20997;SDS011;10657;51.276;6.390;2023-04-01T09:40:55;9.98;;;6.28;;
20997;SDS011;10657;51.276;6.390;2023-04-01T09:51:48;9.82;;;5.90;;
20997;SDS011;10657;51.276;6.390;2023-04-01T09:57:05;7.80;;;5.38;;
20997;SDS011;10657;51.276;6.390;2023-04-01T10:02:50;8.40;;;4.97;;
20997;SDS011;10657;51.276;6.390;2023-04-01T10:05:43;8.52;;;5.10;;
20997;SDS011;10657;51.276;6.390;2023-04-01T10:08:33;7.85;;;5.38;;
20997;SDS011;10657;51.276;6.390;2023-04-01T10:20:41;6.50;;;4.32;;
20997;SDS011;10657;51.276;6.390;2023-04-01T10:36:50;7.20;;;4.60;;
20997;SDS011;10657;51.276;6.390;2023-04-01T10:39:33;8.60;;;5.65;;
20997;SDS011;10657;51.276;6.390;2023-04-01T10:42:35;8.07;;;5.25;;
20997;SDS011;10657;51.276;6.390;2023-04-01T10:53:27;8.63;;;4.88;;
20997;SDS011;10657;51.276;6.390;2023-04-01T10:59:25;7.25;;;4.95;;
20997;SDS011;10657;51.276;6.390;2023-04-01T11:31:23;7.05;;;4.15;;
20997;SDS011;10657;51.276;6.390;2023-04-01T11:34:09;7.30;;;4.40;;
20997;SDS011;10657;51.276;6.390;2023-04-01T11:37:03;8.10;;;4.95;;
20997;SDS011;10657;51.276;6.390;2023-04-01T11:43:08;8.30;;;4.70;;
20997;SDS011;10657;51.276;6.390;2023-04-01T11:46:11;7.50;;;4.65;;
20997;SDS011;10657;51.276;6.390;2023-04-01T11:48:55;10.05;;;5.07;;
20997;SDS011;10657;51.276;6.390;2023-04-01T11:51:55;7.95;;;4.90;;
20997;SDS011;10657;51.276;6.390;2023-04-01T12:03:18;8.15;;;5.15;;
20997;SDS011;10657;51.276;6.390;2023-04-01T12:11:33;7.43;;;4.57;;
20997;SDS011;10657;51.276;6.390;2023-04-01T12:14:23;8.23;;;4.70;;
20997;SDS011;10657;51.276;6.390;2023-04-01T12:17:08;8.82;;;4.63;;
20997;SDS011;10657;51.276;6.390;2023-04-01T12:19:58;7.95;;;4.47;;
20997;SDS011;10657;51.276;6.390;2023-04-01T12:28:21;7.82;;;3.85;;
20997;SDS011;10657;51.276;6.390;2023-04-01T12:56:03;6.00;;;3.10;;
20997;SDS011;10657;51.276;6.390;2023-04-01T13:01:17;6.50;;;3.17;;
20997;SDS011;10657;51.276;6.390;2023-04-01T13:06:52;5.28;;;2.85;;
20997;SDS011;10657;51.276;6.390;2023-04-01T13:17:53;6.93;;;3.05;;
20997;SDS011;10657;51.276;6.390;2023-04-01T13:23:28;5.47;;;3.00;;
20997;SDS011;10657;51.276;6.390;2023-04-01T13:28:43;8.40;;;4.35;;
20997;SDS011;10657;51.276;6.390;2023-04-01T13:41:54;6.00;;;3.47;;
20997;SDS011;10657;51.276;6.390;2023-04-01T13:44:29;6.00;;;3.38;;
20997;SDS011;10657;51.276;6.390;2023-04-01T13:47:28;7.13;;;3.50;;
20997;SDS011;10657;51.276;6.390;2023-04-01T14:15:38;4.80;;;2.40;;
20997;SDS011;10657;51.276;6.390;2023-04-01T14:18:18;5.80;;;2.85;;
20997;SDS011;10657;51.276;6.390;2023-04-01T14:21:23;6.78;;;3.42;;
20997;SDS011;10657;51.276;6.390;2023-04-01T14:24:18;11.75;;;5.18;;
20997;SDS011;10657;51.276;6.390;2023-04-01T14:30:04;7.50;;;4.90;;
20997;SDS011;10657;51.276;6.390;2023-04-01T14:32:47;6.07;;;3.20;;
20997;SDS011;10657;51.276;6.390;2023-04-01T14:38:54;4.93;;;2.58;;
20997;SDS011;10657;51.276;6.390;2023-04-01T14:47:58;4.55;;;2.22;;
20997;SDS011;10657;51.276;6.390;2023-04-01T14:50:49;4.55;;;2.20;;
20997;SDS011;10657;51.276;6.390;2023-04-01T14:55:53;5.30;;;2.30;;
20997;SDS011;10657;51.276;6.390;2023-04-01T14:58:43;4.30;;;2.13;;
20997;SDS011;10657;51.276;6.390;2023-04-01T15:04:44;3.80;;;2.05;;
20997;SDS011;10657;51.276;6.390;2023-04-01T15:10:12;4.35;;;2.20;;
20997;SDS011;10657;51.276;6.390;2023-04-01T15:12:59;4.85;;;2.30;;
20997;SDS011;10657;51.276;6.390;2023-04-01T15:21:49;4.85;;;2.22;;
20997;SDS011;10657;51.276;6.390;2023-04-01T15:24:25;4.97;;;2.60;;
20997;SDS011;10657;51.276;6.390;2023-04-01T15:29:42;4.13;;;1.98;;
20997;SDS011;10657;51.276;6.390;2023-04-01T15:40:17;4.35;;;2.00;;
20997;SDS011;10657;51.276;6.390;2023-04-01T15:45:51;4.53;;;2.03;;
20997;SDS011;10657;51.276;6.390;2023-04-01T15:48:45;4.40;;;2.08;;
20997;SDS011;10657;51.276;6.390;2023-04-01T15:53:56;4.18;;;1.90;;
20997;SDS011;10657;51.276;6.390;2023-04-01T15:59:27;4.90;;;2.08;;
20997;SDS011;10657;51.276;6.390;2023-04-01T16:09:52;5.82;;;2.90;;
20997;SDS011;10657;51.276;6.390;2023-04-01T16:12:36;6.07;;;3.00;;
20997;SDS011;10657;51.276;6.390;2023-04-01T16:18:20;5.25;;;2.80;;
20997;SDS011;10657;51.276;6.390;2023-04-01T16:23:43;5.55;;;2.45;;
20997;SDS011;10657;51.276;6.390;2023-04-01T16:31:48;4.80;;;2.33;;
20997;SDS011;10657;51.276;6.390;2023-04-01T16:34:38;5.20;;;2.42;;
20997;SDS011;10657;51.276;6.390;2023-04-01T16:37:11;4.65;;;2.42;;
20997;SDS011;10657;51.276;6.390;2023-04-01T16:43:04;4.70;;;2.13;;
20997;SDS011;10657;51.276;6.390;2023-04-01T16:45:51;4.22;;;1.90;;
20997;SDS011;10657;51.276;6.390;2023-04-01T16:48:58;3.60;;;1.80;;
20997;SDS011;10657;51.276;6.390;2023-04-01T16:51:48;4.47;;;1.98;;
20997;SDS011;10657;51.276;6.390;2023-04-01T16:54:54;4.10;;;1.90;;
20997;SDS011;10657;51.276;6.390;2023-04-01T16:57:27;4.97;;;1.90;;
20997;SDS011;10657;51.276;6.390;2023-04-01T17:03:26;6.13;;;2.00;;
20997;SDS011;10657;51.276;6.390;2023-04-01T17:06:02;5.50;;;2.40;;
20997;SDS011;10657;51.276;6.390;2023-04-01T17:13:52;4.25;;;1.90;;
20997;SDS011;10657;51.276;6.390;2023-04-01T17:19:27;3.90;;;1.90;;
20997;SDS011;10657;51.276;6.390;2023-04-01T17:22:31;4.55;;;1.80;;
20997;SDS011;10657;51.276;6.390;2023-04-01T17:35:39;4.20;;;1.80;;
20997;SDS011;10657;51.276;6.390;2023-04-01T17:47:29;5.13;;;2.00;;
20997;SDS011;10657;51.276;6.390;2023-04-01T17:58:07;5.93;;;2.22;;
20997;SDS011;10657;51.276;6.390;2023-04-01T18:06:47;4.00;;;2.15;;
20997;SDS011;10657;51.276;6.390;2023-04-01T18:10:20;3.58;;;1.92;;
20997;SDS011;10657;51.276;6.390;2023-04-01T18:26:08;4.97;;;2.22;;
20997;SDS011;10657;51.276;6.390;2023-04-01T18:28:41;3.92;;;2.10;;
20997;SDS011;10657;51.276;6.390;2023-04-01T18:31:16;4.35;;;1.92;;
20997;SDS011;10657;51.276;6.390;2023-04-01T18:33:48;4.38;;;2.28;;
20997;SDS011;10657;51.276;6.390;2023-04-01T18:39:22;4.03;;;1.85;;
20997;SDS011;10657;51.276;6.390;2023-04-01T18:44:55;4.38;;;2.30;;
20997;SDS011;10657;51.276;6.390;2023-04-01T18:53:39;4.72;;;2.55;;
20997;SDS011;10657;51.276;6.390;2023-04-01T18:56:14;5.22;;;2.75;;
20997;SDS011;10657;51.276;6.390;2023-04-01T18:58:58;4.70;;;2.47;;
20997;SDS011;10657;51.276;6.390;2023-04-01T19:01:47;5.03;;;2.72;;
20997;SDS011;10657;51.276;6.390;2023-04-01T19:07:21;5.90;;;3.30;;
20997;SDS011;10657;51.276;6.390;2023-04-01T19:10:13;6.95;;;3.47;;
20997;SDS011;10657;51.276;6.390;2023-04-01T19:23:59;7.30;;;2.70;;
20997;SDS011;10657;51.276;6.390;2023-04-01T19:26:34;5.72;;;3.10;;
20997;SDS011;10657;51.276;6.390;2023-04-01T19:29:26;6.82;;;3.10;;
20997;SDS011;10657;51.276;6.390;2023-04-01T19:32:00;5.95;;;3.30;;
20997;SDS011;10657;51.276;6.390;2023-04-01T19:34:42;5.57;;;3.05;;
20997;SDS011;10657;51.276;6.390;2023-04-01T19:42:55;6.60;;;3.70;;
20997;SDS011;10657;51.276;6.390;2023-04-01T19:45:42;6.20;;;3.28;;
20997;SDS011;10657;51.276;6.390;2023-04-01T19:48:17;5.15;;;2.67;;
20997;SDS011;10657;51.276;6.390;2023-04-01T19:51:16;5.00;;;2.60;;
20997;SDS011;10657;51.276;6.390;2023-04-01T19:56:21;5.30;;;2.55;;
20997;SDS011;10657;51.276;6.390;2023-04-01T20:04:13;5.03;;;2.22;;
20997;SDS011;10657;51.276;6.390;2023-04-01T20:09:46;1.80;;;0.55;;
20997;SDS011;10657;51.276;6.390;2023-04-01T20:12:17;3.13;;;1.40;;
20997;SDS011;10657;51.276;6.390;2023-04-01T20:18:02;5.97;;;2.63;;
20997;SDS011;10657;51.276;6.390;2023-04-01T20:20:52;6.80;;;3.40;;
20997;SDS011;10657;51.276;6.390;2023-04-01T20:23:43;4.53;;;2.03;;
20997;SDS011;10657;51.276;6.390;2023-04-01T20:26:32;2.53;;;0.70;;
20997;SDS011;10657;51.276;6.390;2023-04-01T20:32:39;6.28;;;3.20;;
20997;SDS011;10657;51.276;6.390;2023-04-01T20:35:30;5.95;;;3.03;;
20997;SDS011;10657;51.276;6.390;2023-04-01T20:41:02;5.25;;;2.60;;
20997;SDS011;10657;51.276;6.390;2023-04-01T20:43:40;2.72;;;1.20;;
20997;SDS011;10657;51.276;6.390;2023-04-01T20:49:10;3.88;;;1.98;;
20997;SDS011;10657;51.276;6.390;2023-04-01T20:51:54;1.35;;;0.70;;
20997;SDS011;10657;51.276;6.390;2023-04-01T20:54:44;1.75;;;0.90;;
20997;SDS011;10657;51.276;6.390;2023-04-01T21:00:16;1.27;;;0.65;;
20997;SDS011;10657;51.276;6.390;2023-04-01T21:12:06;1.58;;;0.70;;
20997;SDS011;10657;51.276;6.390;2023-04-01T21:20:34;1.25;;;0.75;;
20997;SDS011;10657;51.276;6.390;2023-04-01T21:45:02;1.38;;;0.73;;
20997;SDS011;10657;51.276;6.390;2023-04-01T21:47:49;1.17;;;0.70;;
20997;SDS011;10657;51.276;6.390;2023-04-01T21:50:47;3.60;;;1.90;;
20997;SDS011;10657;51.276;6.390;2023-04-01T21:53:30;4.13;;;2.17;;
20997;SDS011;10657;51.276;6.390;2023-04-01T22:05:15;1.42;;;0.70;;
20997;SDS011;10657;51.276;6.390;2023-04-01T22:16:06;2.90;;;1.17;;
20997;SDS011;10657;51.276;6.390;2023-04-01T22:18:38;1.55;;;0.73;;
20997;SDS011;10657;51.276;6.390;2023-04-01T22:21:19;3.28;;;1.42;;
20997;SDS011;10657;51.276;6.390;2023-04-01T22:24:07;5.60;;;2.90;;
20997;SDS011;10657;51.276;6.390;2023-04-01T22:29:59;2.55;;;1.20;;
20997;SDS011;10657;51.276;6.390;2023-04-01T22:32:52;3.22;;;1.45;;
20997;SDS011;10657;51.276;6.390;2023-04-01T22:43:12;1.40;;;0.70;;
20997;SDS011;10657;51.276;6.390;2023-04-01T22:48:52;3.50;;;1.52;;
20997;SDS011;10657;51.276;6.390;2023-04-01T22:51:44;7.07;;;2.00;;
20997;SDS011;10657;51.276;6.390;2023-04-01T22:54:31;4.13;;;2.17;;
20997;SDS011;10657;51.276;6.390;2023-04-01T22:57:03;2.90;;;1.35;;
20997;SDS011;10657;51.276;6.390;2023-04-01T22:59:38;6.85;;;4.22;;
20997;SDS011;10657;51.276;6.390;2023-04-01T23:02:15;2.35;;;1.20;;
20997;SDS011;10657;51.276;6.390;2023-04-01T23:04:48;1.48;;;0.80;;
20997;SDS011;10657;51.276;6.390;2023-04-01T23:10:15;0.98;;;0.40;;
20997;SDS011;10657;51.276;6.390;2023-04-01T23:12:57;3.20;;;1.60;;
20997;SDS011;10657;51.276;6.390;2023-04-01T23:15:26;2.15;;;1.20;;
20997;SDS011;10657;51.276;6.390;2023-04-01T23:20:52;4.15;;;2.10;;
20997;SDS011;10657;51.276;6.390;2023-04-01T23:24:09;1.33;;;0.57;;
20997;SDS011;10657;51.276;6.390;2023-04-01T23:26:24;4.30;;;1.92;;
20997;SDS011;10657;51.276;6.390;2023-04-01T23:29:04;4.57;;;2.42;;
20997;SDS011;10657;51.276;6.390;2023-04-01T23:31:38;2.47;;;1.20;;
20997;SDS011;10657;51.276;6.390;2023-04-01T23:36:41;4.00;;;2.08;;
20997;SDS011;10657;51.276;6.390;2023-04-01T23:39:20;1.63;;;0.60;;
20997;SDS011;10657;51.276;6.390;2023-04-01T23:41:48;2.97;;;1.20;;
20997;SDS011;10657;51.276;6.390;2023-04-01T23:44:16;1.42;;;0.70;;
20997;SDS011;10657;51.276;6.390;2023-04-01T23:46:44;1.52;;;0.52;;
20997;SDS011;10657;51.276;6.390;2023-04-01T23:49:15;1.80;;;0.90;;
20997;SDS011;10657;51.276;6.390;2023-04-01T23:55:00;1.90;;;0.70;;
20997;SDS011;10657;51.276;6.390;2023-04-01T23:57:36;2.33;;;0.88;;
